Airfield :







YOU CAN JOIN US ON...

 
LOGIN :

Register | Disclaimer

   EN    FR    IT 

 









Legend :    VFR   Marginal VFR   IFR   Intensive IFR   Very Intensive IFR
Visi :
Ceiling :
>= 8 km
>= 3000ft
5 to 8 km
1000 to 3000 ft
1500m to 5 km
500 to 1000 ft
800 to 1500m
200 to 500 ft
< 800m
< 200 ft
Symbols :   Thunderstorms  Fog  Heavy snow  Heavy precipitations  Wind > 20 kt






- Airport Elevation : 489 ft


KHUL - Houlton International

CURRENT METAR :
  • 100401Z AUTO 18012G22KT 10SM -RA SCT010 BKN014 OVC022 09/08 A2956 RMK AO2 P0000 T00940083

EXPIRED METARs :
  • 100353Z AUTO 18011G20KT 6SM -RA BR SCT010 OVC018 09/08 A2957 RMK AO2 SLP016 P0006 T00940083
  • 100332Z AUTO 17010G20KT 140V210 6SM -RA BR OVC012 09/08 A2958 RMK AO2 P0004 T00940083
  • 100253Z AUTO 17009G19KT 5SM -RA BR FEW008 OVC025 09/08 A2962 RMK AO2 PRESFR SLP035 P0008 60019 T00940083 58061
  • 100153Z AUTO 18011G19KT 5SM -RA BR FEW009 OVC015 09/08 A2969 RMK AO2 SLP059 P0006 T00890078

TAF KHUL
Valid from the 10 at 01:00 until the 11 at 00:00 UTC


100111Z 1001/1024 16010G19KT 3SM RA BR OVC014 WS020/19055KT
FM100500 19015G28KT 2SM RA BR OVC003 WS020/20055KT
FM101200 21009KT P6SM VCSH BKN005 WS020/24040KT
FM101700 22011G24KT P6SM BKN009 WS020/23040KT
FM102300 25010G24KT P6SM BKN070



MET'MAP, your aeronautical weather chart ! - Copyright ORBIFLY December 2007 - Disclaimer

ORBIFLY MET'MAP TEAM :

Programming & Development : Alexandra Zaïnal
Concept & original design : Baudouin d'Aumeries
Assistance for programming : Marc-Olivier Méhu
Technical & hardware support : Manuel Goepfert

Contact : metmap@orbifly.com




SOURCES & CREDITS :

   NOAA